Weather at Borisovo Air Base

Public forecast

Using degrees Celsius for public forecast. Weather courtesy of forecast.io.

Closest aviation weather report (METAR) to Borisovo Air Base

Report is more than 2 hours old.

Closest report is Brest Airport, 18.8 nm (34.8 km) W.

2024/07/20 13:30 (retrieved 6 hours ago)

UMBB 201330Z 34002MPS CAVOK 26/07 Q1012 NOSIG

Closest aviation forecast (TAF) to Borisovo Air Base

Closest forecast is Lublin Airport, 83.7 nm (155.1 km) SW.

2024/07/20 18:00 (retrieved 1 hour ago)

TAF EPLB 201730Z 2018/2118 VRB03KT CAVOK